sensor_id;sensor_type;location;lat;lon;timestamp;P1;durP1;ratioP1;P2;durP2;ratioP2
56297;SDS011;42208;6.376;-10.782;2022-08-19T00:00:22;24.15;;;10.13;;
56297;SDS011;42208;6.376;-10.782;2022-08-19T00:02:50;24.85;;;11.27;;
56297;SDS011;42208;6.376;-10.782;2022-08-19T00:05:20;28.90;;;11.70;;
56297;SDS011;42208;6.376;-10.782;2022-08-19T00:07:49;23.15;;;10.00;;
56297;SDS011;42208;6.376;-10.782;2022-08-19T00:10:17;22.58;;;9.52;;
56297;SDS011;42208;6.376;-10.782;2022-08-19T00:12:47;21.42;;;10.20;;
56297;SDS011;42208;6.376;-10.782;2022-08-19T00:15:17;30.80;;;12.20;;
56297;SDS011;42208;6.376;-10.782;2022-08-19T00:17:48;24.63;;;10.98;;
56297;SDS011;42208;6.376;-10.782;2022-08-19T00:20:18;26.40;;;10.73;;
56297;SDS011;42208;6.376;-10.782;2022-08-19T00:22:48;26.40;;;11.50;;
56297;SDS011;42208;6.376;-10.782;2022-08-19T00:25:17;26.30;;;10.00;;
56297;SDS011;42208;6.376;-10.782;2022-08-19T00:27:56;28.50;;;10.55;;
56297;SDS011;42208;6.376;-10.782;2022-08-19T00:30:25;22.05;;;9.63;;
56297;SDS011;42208;6.376;-10.782;2022-08-19T00:32:53;25.90;;;9.30;;
56297;SDS011;42208;6.376;-10.782;2022-08-19T00:35:22;19.70;;;10.07;;
56297;SDS011;42208;6.376;-10.782;2022-08-19T00:37:51;28.67;;;9.75;;
56297;SDS011;42208;6.376;-10.782;2022-08-19T00:40:20;16.60;;;9.25;;
56297;SDS011;42208;6.376;-10.782;2022-08-19T00:42:48;35.72;;;10.45;;
56297;SDS011;42208;6.376;-10.782;2022-08-19T00:45:19;26.42;;;10.65;;
56297;SDS011;42208;6.376;-10.782;2022-08-19T00:47:50;22.10;;;9.10;;
56297;SDS011;42208;6.376;-10.782;2022-08-19T00:50:19;18.27;;;8.98;;
56297;SDS011;42208;6.376;-10.782;2022-08-19T00:52:48;24.45;;;10.88;;
56297;SDS011;42208;6.376;-10.782;2022-08-19T00:55:20;34.45;;;12.55;;
56297;SDS011;42208;6.376;-10.782;2022-08-19T00:57:52;31.67;;;14.07;;
56297;SDS011;42208;6.376;-10.782;2022-08-19T01:00:24;24.58;;;10.60;;
56297;SDS011;42208;6.376;-10.782;2022-08-19T01:02:53;26.42;;;10.85;;
56297;SDS011;42208;6.376;-10.782;2022-08-19T01:05:24;22.75;;;10.77;;
56297;SDS011;42208;6.376;-10.782;2022-08-19T01:07:55;30.50;;;12.05;;
56297;SDS011;42208;6.376;-10.782;2022-08-19T01:10:27;24.10;;;11.48;;
56297;SDS011;42208;6.376;-10.782;2022-08-19T01:13:03;25.95;;;10.98;;
56297;SDS011;42208;6.376;-10.782;2022-08-19T01:15:34;26.48;;;9.98;;
56297;SDS011;42208;6.376;-10.782;2022-08-19T01:18:09;24.58;;;9.80;;
56297;SDS011;42208;6.376;-10.782;2022-08-19T01:20:41;25.52;;;10.52;;
56297;SDS011;42208;6.376;-10.782;2022-08-19T01:23:10;25.20;;;10.18;;
56297;SDS011;42208;6.376;-10.782;2022-08-19T01:25:50;19.73;;;9.00;;
56297;SDS011;42208;6.376;-10.782;2022-08-19T01:28:21;22.17;;;10.25;;
56297;SDS011;42208;6.376;-10.782;2022-08-19T01:31:06;24.13;;;10.27;;
56297;SDS011;42208;6.376;-10.782;2022-08-19T01:33:36;23.80;;;10.45;;
56297;SDS011;42208;6.376;-10.782;2022-08-19T01:36:09;29.92;;;11.40;;
56297;SDS011;42208;6.376;-10.782;2022-08-19T01:38:41;29.55;;;9.70;;
56297;SDS011;42208;6.376;-10.782;2022-08-19T01:41:11;22.10;;;10.77;;
56297;SDS011;42208;6.376;-10.782;2022-08-19T01:43:40;28.40;;;12.57;;
56297;SDS011;42208;6.376;-10.782;2022-08-19T01:46:29;38.88;;;11.68;;
56297;SDS011;42208;6.376;-10.782;2022-08-19T01:48:58;26.08;;;10.00;;
56297;SDS011;42208;6.376;-10.782;2022-08-19T01:51:27;17.48;;;8.50;;
56297;SDS011;42208;6.376;-10.782;2022-08-19T01:54:05;17.85;;;9.00;;
56297;SDS011;42208;6.376;-10.782;2022-08-19T01:56:35;18.02;;;8.55;;
56297;SDS011;42208;6.376;-10.782;2022-08-19T01:59:09;25.25;;;9.40;;
56297;SDS011;42208;6.376;-10.782;2022-08-19T02:01:41;18.17;;;9.25;;
56297;SDS011;42208;6.376;-10.782;2022-08-19T02:04:09;24.80;;;9.25;;
56297;SDS011;42208;6.376;-10.782;2022-08-19T02:06:38;23.33;;;9.60;;
56297;SDS011;42208;6.376;-10.782;2022-08-19T02:09:06;22.00;;;9.23;;
56297;SDS011;42208;6.376;-10.782;2022-08-19T02:11:36;19.20;;;9.25;;
56297;SDS011;42208;6.376;-10.782;2022-08-19T02:14:06;28.75;;;10.95;;
56297;SDS011;42208;6.376;-10.782;2022-08-19T02:16:35;22.33;;;9.20;;
56297;SDS011;42208;6.376;-10.782;2022-08-19T02:19:03;24.60;;;9.48;;
56297;SDS011;42208;6.376;-10.782;2022-08-19T02:21:32;24.05;;;9.02;;
56297;SDS011;42208;6.376;-10.782;2022-08-19T02:24:01;30.52;;;9.98;;
56297;SDS011;42208;6.376;-10.782;2022-08-19T02:26:31;20.08;;;9.75;;
56297;SDS011;42208;6.376;-10.782;2022-08-19T02:28:59;23.85;;;8.85;;
56297;SDS011;42208;6.376;-10.782;2022-08-19T02:31:28;21.65;;;8.90;;
56297;SDS011;42208;6.376;-10.782;2022-08-19T02:33:57;20.80;;;8.95;;
56297;SDS011;42208;6.376;-10.782;2022-08-19T02:36:26;23.30;;;8.63;;
56297;SDS011;42208;6.376;-10.782;2022-08-19T02:38:56;21.58;;;8.43;;
56297;SDS011;42208;6.376;-10.782;2022-08-19T02:41:25;26.52;;;8.50;;
56297;SDS011;42208;6.376;-10.782;2022-08-19T02:43:59;23.10;;;8.75;;
56297;SDS011;42208;6.376;-10.782;2022-08-19T02:46:49;22.40;;;10.93;;
56297;SDS011;42208;6.376;-10.782;2022-08-19T02:49:18;16.02;;;8.60;;
56297;SDS011;42208;6.376;-10.782;2022-08-19T02:51:47;19.50;;;7.85;;
56297;SDS011;42208;6.376;-10.782;2022-08-19T02:54:15;21.02;;;9.38;;
56297;SDS011;42208;6.376;-10.782;2022-08-19T02:56:44;16.88;;;9.00;;
56297;SDS011;42208;6.376;-10.782;2022-08-19T02:59:12;19.55;;;8.85;;
56297;SDS011;42208;6.376;-10.782;2022-08-19T03:01:41;20.58;;;9.07;;
56297;SDS011;42208;6.376;-10.782;2022-08-19T03:04:10;24.05;;;9.70;;
56297;SDS011;42208;6.376;-10.782;2022-08-19T03:06:41;23.23;;;8.77;;
56297;SDS011;42208;6.376;-10.782;2022-08-19T03:09:11;23.52;;;8.02;;
56297;SDS011;42208;6.376;-10.782;2022-08-19T03:11:41;26.42;;;9.90;;
56297;SDS011;42208;6.376;-10.782;2022-08-19T03:14:09;23.80;;;9.35;;
56297;SDS011;42208;6.376;-10.782;2022-08-19T03:16:45;25.38;;;9.13;;
56297;SDS011;42208;6.376;-10.782;2022-08-19T03:19:18;27.17;;;9.25;;
56297;SDS011;42208;6.376;-10.782;2022-08-19T03:21:47;21.48;;;8.32;;
56297;SDS011;42208;6.376;-10.782;2022-08-19T03:24:16;20.35;;;8.32;;
56297;SDS011;42208;6.376;-10.782;2022-08-19T03:26:47;27.20;;;9.52;;
56297;SDS011;42208;6.376;-10.782;2022-08-19T03:29:17;24.10;;;8.68;;
56297;SDS011;42208;6.376;-10.782;2022-08-19T03:32:00;24.05;;;8.38;;
56297;SDS011;42208;6.376;-10.782;2022-08-19T03:34:31;21.20;;;8.90;;
56297;SDS011;42208;6.376;-10.782;2022-08-19T03:37:03;25.33;;;9.30;;
56297;SDS011;42208;6.376;-10.782;2022-08-19T03:39:36;22.42;;;10.02;;
56297;SDS011;42208;6.376;-10.782;2022-08-19T03:42:07;28.30;;;8.75;;
56297;SDS011;42208;6.376;-10.782;2022-08-19T03:44:56;16.67;;;8.30;;
56297;SDS011;42208;6.376;-10.782;2022-08-19T03:47:24;18.25;;;7.97;;
56297;SDS011;42208;6.376;-10.782;2022-08-19T03:49:53;20.90;;;8.55;;
56297;SDS011;42208;6.376;-10.782;2022-08-19T03:52:21;22.30;;;10.07;;
56297;SDS011;42208;6.376;-10.782;2022-08-19T03:54:49;22.67;;;9.57;;
56297;SDS011;42208;6.376;-10.782;2022-08-19T03:57:18;20.55;;;8.93;;
56297;SDS011;42208;6.376;-10.782;2022-08-19T03:59:50;23.85;;;11.13;;
56297;SDS011;42208;6.376;-10.782;2022-08-19T04:02:18;18.23;;;9.07;;
56297;SDS011;42208;6.376;-10.782;2022-08-19T04:04:46;23.90;;;9.55;;
56297;SDS011;42208;6.376;-10.782;2022-08-19T04:07:15;19.70;;;10.18;;
56297;SDS011;42208;6.376;-10.782;2022-08-19T04:09:43;23.52;;;11.48;;
56297;SDS011;42208;6.376;-10.782;2022-08-19T04:12:12;29.83;;;9.77;;
56297;SDS011;42208;6.376;-10.782;2022-08-19T04:14:40;26.95;;;9.38;;
56297;SDS011;42208;6.376;-10.782;2022-08-19T04:17:09;19.25;;;8.50;;
56297;SDS011;42208;6.376;-10.782;2022-08-19T04:19:37;26.15;;;10.18;;
56297;SDS011;42208;6.376;-10.782;2022-08-19T04:22:05;19.13;;;9.57;;
56297;SDS011;42208;6.376;-10.782;2022-08-19T04:24:34;29.02;;;10.30;;
56297;SDS011;42208;6.376;-10.782;2022-08-19T04:27:02;23.50;;;9.32;;
56297;SDS011;42208;6.376;-10.782;2022-08-19T04:29:31;25.38;;;9.13;;
56297;SDS011;42208;6.376;-10.782;2022-08-19T04:32:00;20.95;;;9.80;;
56297;SDS011;42208;6.376;-10.782;2022-08-19T04:34:36;24.75;;;8.95;;
56297;SDS011;42208;6.376;-10.782;2022-08-19T04:37:25;18.08;;;8.55;;
56297;SDS011;42208;6.376;-10.782;2022-08-19T04:40:02;24.02;;;9.48;;
56297;SDS011;42208;6.376;-10.782;2022-08-19T04:42:32;22.00;;;10.10;;
56297;SDS011;42208;6.376;-10.782;2022-08-19T04:45:00;18.00;;;9.50;;
56297;SDS011;42208;6.376;-10.782;2022-08-19T04:47:31;20.05;;;10.05;;
56297;SDS011;42208;6.376;-10.782;2022-08-19T04:50:19;26.42;;;9.63;;
56297;SDS011;42208;6.376;-10.782;2022-08-19T04:52:49;19.58;;;9.75;;
56297;SDS011;42208;6.376;-10.782;2022-08-19T04:55:18;19.00;;;9.55;;
56297;SDS011;42208;6.376;-10.782;2022-08-19T04:57:47;24.08;;;10.07;;
56297;SDS011;42208;6.376;-10.782;2022-08-19T05:00:15;21.98;;;10.07;;
56297;SDS011;42208;6.376;-10.782;2022-08-19T05:02:43;20.35;;;10.43;;
56297;SDS011;42208;6.376;-10.782;2022-08-19T05:05:12;24.38;;;10.43;;
56297;SDS011;42208;6.376;-10.782;2022-08-19T05:07:40;20.65;;;10.20;;
56297;SDS011;42208;6.376;-10.782;2022-08-19T05:10:08;21.15;;;10.70;;
56297;SDS011;42208;6.376;-10.782;2022-08-19T05:12:37;19.40;;;10.57;;
56297;SDS011;42208;6.376;-10.782;2022-08-19T05:15:06;23.80;;;11.00;;
56297;SDS011;42208;6.376;-10.782;2022-08-19T05:17:35;22.00;;;9.27;;
56297;SDS011;42208;6.376;-10.782;2022-08-19T05:20:06;19.75;;;10.02;;
56297;SDS011;42208;6.376;-10.782;2022-08-19T05:22:35;20.65;;;10.23;;
56297;SDS011;42208;6.376;-10.782;2022-08-19T05:25:07;15.85;;;10.13;;
56297;SDS011;42208;6.376;-10.782;2022-08-19T05:27:43;23.23;;;10.23;;
56297;SDS011;42208;6.376;-10.782;2022-08-19T05:30:11;19.00;;;8.90;;
56297;SDS011;42208;6.376;-10.782;2022-08-19T05:32:40;21.92;;;9.60;;
56297;SDS011;42208;6.376;-10.782;2022-08-19T05:35:09;19.80;;;9.38;;
56297;SDS011;42208;6.376;-10.782;2022-08-19T05:37:37;23.10;;;10.00;;
56297;SDS011;42208;6.376;-10.782;2022-08-19T05:40:07;20.33;;;9.50;;
56297;SDS011;42208;6.376;-10.782;2022-08-19T05:42:36;23.92;;;10.43;;
56297;SDS011;42208;6.376;-10.782;2022-08-19T05:45:05;21.60;;;10.30;;
56297;SDS011;42208;6.376;-10.782;2022-08-19T05:47:34;22.50;;;10.55;;
56297;SDS011;42208;6.376;-10.782;2022-08-19T05:50:08;24.10;;;10.07;;
56297;SDS011;42208;6.376;-10.782;2022-08-19T05:52:37;23.85;;;10.93;;
56297;SDS011;42208;6.376;-10.782;2022-08-19T05:55:11;23.70;;;10.73;;
56297;SDS011;42208;6.376;-10.782;2022-08-19T05:57:40;22.25;;;11.65;;
56297;SDS011;42208;6.376;-10.782;2022-08-19T06:00:08;22.95;;;11.95;;
56297;SDS011;42208;6.376;-10.782;2022-08-19T06:02:38;27.48;;;11.50;;
56297;SDS011;42208;6.376;-10.782;2022-08-19T06:05:07;32.97;;;12.25;;
56297;SDS011;42208;6.376;-10.782;2022-08-19T06:07:36;26.80;;;12.55;;
56297;SDS011;42208;6.376;-10.782;2022-08-19T06:10:07;23.25;;;12.23;;
56297;SDS011;42208;6.376;-10.782;2022-08-19T06:12:38;25.50;;;12.43;;
56297;SDS011;42208;6.376;-10.782;2022-08-19T06:15:08;25.85;;;13.50;;
56297;SDS011;42208;6.376;-10.782;2022-08-19T06:17:39;31.42;;;12.95;;
56297;SDS011;42208;6.376;-10.782;2022-08-19T06:20:09;26.70;;;12.48;;
56297;SDS011;42208;6.376;-10.782;2022-08-19T06:22:39;23.30;;;12.00;;
56297;SDS011;42208;6.376;-10.782;2022-08-19T06:25:09;24.40;;;13.02;;
56297;SDS011;42208;6.376;-10.782;2022-08-19T06:27:38;33.42;;;14.20;;
56297;SDS011;42208;6.376;-10.782;2022-08-19T06:30:27;27.67;;;15.32;;
56297;SDS011;42208;6.376;-10.782;2022-08-19T06:32:55;34.42;;;16.42;;
56297;SDS011;42208;6.376;-10.782;2022-08-19T06:35:23;26.02;;;15.60;;
56297;SDS011;42208;6.376;-10.782;2022-08-19T06:37:52;31.23;;;16.23;;
56297;SDS011;42208;6.376;-10.782;2022-08-19T06:40:20;34.67;;;14.50;;
56297;SDS011;42208;6.376;-10.782;2022-08-19T06:42:49;28.27;;;14.32;;
56297;SDS011;42208;6.376;-10.782;2022-08-19T06:45:22;30.50;;;14.13;;
56297;SDS011;42208;6.376;-10.782;2022-08-19T06:48:00;39.45;;;14.82;;
56297;SDS011;42208;6.376;-10.782;2022-08-19T06:50:29;32.55;;;14.75;;
56297;SDS011;42208;6.376;-10.782;2022-08-19T06:52:58;31.45;;;14.52;;
56297;SDS011;42208;6.376;-10.782;2022-08-19T06:55:30;30.08;;;13.18;;
56297;SDS011;42208;6.376;-10.782;2022-08-19T06:58:01;30.35;;;14.13;;
56297;SDS011;42208;6.376;-10.782;2022-08-19T07:00:31;37.33;;;16.25;;
56297;SDS011;42208;6.376;-10.782;2022-08-19T07:03:00;29.95;;;14.60;;
56297;SDS011;42208;6.376;-10.782;2022-08-19T07:05:37;29.38;;;13.95;;
56297;SDS011;42208;6.376;-10.782;2022-08-19T07:08:12;31.75;;;14.35;;
56297;SDS011;42208;6.376;-10.782;2022-08-19T07:10:45;23.17;;;12.05;;
56297;SDS011;42208;6.376;-10.782;2022-08-19T07:15:42;35.38;;;13.32;;
56297;SDS011;42208;6.376;-10.782;2022-08-19T07:18:11;29.92;;;13.45;;
56297;SDS011;42208;6.376;-10.782;2022-08-19T07:20:40;37.13;;;13.98;;
56297;SDS011;42208;6.376;-10.782;2022-08-19T07:23:09;42.05;;;18.27;;
56297;SDS011;42208;6.376;-10.782;2022-08-19T07:25:42;48.13;;;19.48;;
56297;SDS011;42208;6.376;-10.782;2022-08-19T07:28:18;32.55;;;16.52;;
56297;SDS011;42208;6.376;-10.782;2022-08-19T07:30:51;35.38;;;14.18;;
56297;SDS011;42208;6.376;-10.782;2022-08-19T07:33:19;32.45;;;11.23;;
56297;SDS011;42208;6.376;-10.782;2022-08-19T07:35:48;23.10;;;11.23;;
56297;SDS011;42208;6.376;-10.782;2022-08-19T07:38:16;26.55;;;11.85;;
56297;SDS011;42208;6.376;-10.782;2022-08-19T07:40:44;26.75;;;11.63;;
56297;SDS011;42208;6.376;-10.782;2022-08-19T07:43:13;26.98;;;12.07;;
56297;SDS011;42208;6.376;-10.782;2022-08-19T07:45:44;31.83;;;13.00;;
56297;SDS011;42208;6.376;-10.782;2022-08-19T07:48:12;26.27;;;12.93;;
56297;SDS011;42208;6.376;-10.782;2022-08-19T07:50:41;24.27;;;11.35;;
56297;SDS011;42208;6.376;-10.782;2022-08-19T07:53:09;32.13;;;10.60;;
56297;SDS011;42208;6.376;-10.782;2022-08-19T07:55:38;27.33;;;13.25;;
56297;SDS011;42208;6.376;-10.782;2022-08-19T07:58:11;30.20;;;13.02;;
56297;SDS011;42208;6.376;-10.782;2022-08-19T08:03:11;35.20;;;13.10;;
56297;SDS011;42208;6.376;-10.782;2022-08-19T08:05:41;29.45;;;13.93;;
56297;SDS011;42208;6.376;-10.782;2022-08-19T08:08:11;25.52;;;12.52;;
56297;SDS011;42208;6.376;-10.782;2022-08-19T08:10:40;33.83;;;14.13;;
56297;SDS011;42208;6.376;-10.782;2022-08-19T08:13:18;24.15;;;12.55;;
56297;SDS011;42208;6.376;-10.782;2022-08-19T08:15:47;28.15;;;11.88;;
56297;SDS011;42208;6.376;-10.782;2022-08-19T08:18:18;32.88;;;13.25;;
56297;SDS011;42208;6.376;-10.782;2022-08-19T08:20:46;23.20;;;10.65;;
56297;SDS011;42208;6.376;-10.782;2022-08-19T08:23:15;22.90;;;10.88;;
56297;SDS011;42208;6.376;-10.782;2022-08-19T08:25:43;28.80;;;11.30;;
56297;SDS011;42208;6.376;-10.782;2022-08-19T08:28:15;27.45;;;10.65;;
56297;SDS011;42208;6.376;-10.782;2022-08-19T08:30:47;29.83;;;12.00;;
56297;SDS011;42208;6.376;-10.782;2022-08-19T08:33:22;24.95;;;12.80;;
56297;SDS011;42208;6.376;-10.782;2022-08-19T08:36:09;25.15;;;11.50;;
56297;SDS011;42208;6.376;-10.782;2022-08-19T08:38:39;27.75;;;11.13;;
56297;SDS011;42208;6.376;-10.782;2022-08-19T08:41:31;23.10;;;11.35;;
56297;SDS011;42208;6.376;-10.782;2022-08-19T08:44:11;29.90;;;12.02;;
56297;SDS011;42208;6.376;-10.782;2022-08-19T08:46:55;30.73;;;12.57;;
56297;SDS011;42208;6.376;-10.782;2022-08-19T08:49:45;23.25;;;11.38;;
56297;SDS011;42208;6.376;-10.782;2022-08-19T08:52:33;21.50;;;11.38;;
56297;SDS011;42208;6.376;-10.782;2022-08-19T08:55:10;30.52;;;12.93;;
56297;SDS011;42208;6.376;-10.782;2022-08-19T09:00:26;32.40;;;13.32;;
56297;SDS011;42208;6.376;-10.782;2022-08-19T09:03:00;25.35;;;9.60;;
56297;SDS011;42208;6.376;-10.782;2022-08-19T09:05:46;19.73;;;11.52;;
56297;SDS011;42208;6.376;-10.782;2022-08-19T09:08:33;32.90;;;14.93;;
56297;SDS011;42208;6.376;-10.782;2022-08-19T09:17:11;32.65;;;12.88;;
56297;SDS011;42208;6.376;-10.782;2022-08-19T09:19:51;33.25;;;12.20;;
56297;SDS011;42208;6.376;-10.782;2022-08-19T09:22:21;22.08;;;11.15;;
56297;SDS011;42208;6.376;-10.782;2022-08-19T09:24:53;32.55;;;14.65;;
56297;SDS011;42208;6.376;-10.782;2022-08-19T09:27:23;33.15;;;13.57;;
56297;SDS011;42208;6.376;-10.782;2022-08-19T09:30:14;23.67;;;11.45;;
56297;SDS011;42208;6.376;-10.782;2022-08-19T09:32:45;25.50;;;10.85;;
56297;SDS011;42208;6.376;-10.782;2022-08-19T09:35:20;31.27;;;14.00;;
56297;SDS011;42208;6.376;-10.782;2022-08-19T09:37:50;31.23;;;13.40;;
56297;SDS011;42208;6.376;-10.782;2022-08-19T09:40:29;27.20;;;11.57;;
56297;SDS011;42208;6.376;-10.782;2022-08-19T09:43:04;26.33;;;12.40;;
56297;SDS011;42208;6.376;-10.782;2022-08-19T09:45:39;25.02;;;13.13;;
56297;SDS011;42208;6.376;-10.782;2022-08-19T09:48:07;27.35;;;12.38;;
56297;SDS011;42208;6.376;-10.782;2022-08-19T09:50:44;51.67;;;33.78;;
56297;SDS011;42208;6.376;-10.782;2022-08-19T09:53:18;36.70;;;20.50;;
56297;SDS011;42208;6.376;-10.782;2022-08-19T09:55:51;44.58;;;23.90;;
56297;SDS011;42208;6.376;-10.782;2022-08-19T09:58:23;33.40;;;16.77;;
56297;SDS011;42208;6.376;-10.782;2022-08-19T10:00:56;26.98;;;12.75;;
56297;SDS011;42208;6.376;-10.782;2022-08-19T10:03:26;25.55;;;10.95;;
56297;SDS011;42208;6.376;-10.782;2022-08-19T10:05:57;22.90;;;11.00;;
56297;SDS011;42208;6.376;-10.782;2022-08-19T10:08:31;25.53;;;11.80;;
56297;SDS011;42208;6.376;-10.782;2022-08-19T10:11:03;26.80;;;12.07;;
56297;SDS011;42208;6.376;-10.782;2022-08-19T10:13:52;34.67;;;15.13;;
56297;SDS011;42208;6.376;-10.782;2022-08-19T10:16:22;24.58;;;10.40;;
56297;SDS011;42208;6.376;-10.782;2022-08-19T10:18:56;24.52;;;11.25;;
56297;SDS011;42208;6.376;-10.782;2022-08-19T10:21:26;27.45;;;12.57;;
56297;SDS011;42208;6.376;-10.782;2022-08-19T10:23:59;22.98;;;12.88;;
56297;SDS011;42208;6.376;-10.782;2022-08-19T10:26:30;33.28;;;18.80;;
56297;SDS011;42208;6.376;-10.782;2022-08-19T10:29:02;24.70;;;12.60;;
56297;SDS011;42208;6.376;-10.782;2022-08-19T10:31:35;17.45;;;11.32;;
56297;SDS011;42208;6.376;-10.782;2022-08-19T10:34:24;43.72;;;17.75;;
56297;SDS011;42208;6.376;-10.782;2022-08-19T10:36:55;27.05;;;13.18;;
56297;SDS011;42208;6.376;-10.782;2022-08-19T10:39:31;27.55;;;12.88;;
56297;SDS011;42208;6.376;-10.782;2022-08-19T10:42:09;30.27;;;13.45;;
56297;SDS011;42208;6.376;-10.782;2022-08-19T10:44:38;26.67;;;13.93;;
56297;SDS011;42208;6.376;-10.782;2022-08-19T10:47:06;28.63;;;14.30;;
56297;SDS011;42208;6.376;-10.782;2022-08-19T10:49:52;31.02;;;16.30;;
56297;SDS011;42208;6.376;-10.782;2022-08-19T10:52:21;27.70;;;14.88;;
56297;SDS011;42208;6.376;-10.782;2022-08-19T10:54:58;28.83;;;12.77;;
56297;SDS011;42208;6.376;-10.782;2022-08-19T10:57:34;29.20;;;13.68;;
56297;SDS011;42208;6.376;-10.782;2022-08-19T11:00:23;31.40;;;12.70;;
56297;SDS011;42208;6.376;-10.782;2022-08-19T11:02:52;23.88;;;12.52;;
56297;SDS011;42208;6.376;-10.782;2022-08-19T11:05:20;27.70;;;13.68;;
56297;SDS011;42208;6.376;-10.782;2022-08-19T11:07:50;29.98;;;15.20;;
56297;SDS011;42208;6.376;-10.782;2022-08-19T11:10:19;29.52;;;15.05;;
56297;SDS011;42208;6.376;-10.782;2022-08-19T11:12:48;34.17;;;16.92;;
56297;SDS011;42208;6.376;-10.782;2022-08-19T11:15:17;30.10;;;16.85;;
56297;SDS011;42208;6.376;-10.782;2022-08-19T11:17:45;31.75;;;15.00;;
56297;SDS011;42208;6.376;-10.782;2022-08-19T11:20:14;32.05;;;16.75;;
56297;SDS011;42208;6.376;-10.782;2022-08-19T11:22:43;27.38;;;15.65;;
56297;SDS011;42208;6.376;-10.782;2022-08-19T11:25:13;29.83;;;15.38;;
56297;SDS011;42208;6.376;-10.782;2022-08-19T11:27:42;24.35;;;14.18;;
56297;SDS011;42208;6.376;-10.782;2022-08-19T11:30:12;25.02;;;13.40;;
56297;SDS011;42208;6.376;-10.782;2022-08-19T11:32:42;36.37;;;12.57;;
56297;SDS011;42208;6.376;-10.782;2022-08-19T11:35:15;22.20;;;12.07;;
56297;SDS011;42208;6.376;-10.782;2022-08-19T11:37:44;25.23;;;12.45;;
56297;SDS011;42208;6.376;-10.782;2022-08-19T11:40:13;30.10;;;13.90;;
56297;SDS011;42208;6.376;-10.782;2022-08-19T11:42:41;31.67;;;13.60;;
56297;SDS011;42208;6.376;-10.782;2022-08-19T11:45:10;26.95;;;13.48;;
56297;SDS011;42208;6.376;-10.782;2022-08-19T11:47:41;30.17;;;16.55;;
56297;SDS011;42208;6.376;-10.782;2022-08-19T11:50:10;35.63;;;16.17;;
56297;SDS011;42208;6.376;-10.782;2022-08-19T11:52:39;41.92;;;21.38;;
56297;SDS011;42208;6.376;-10.782;2022-08-19T11:55:08;52.25;;;31.83;;
56297;SDS011;42208;6.376;-10.782;2022-08-19T11:57:37;39.08;;;18.17;;
56297;SDS011;42208;6.376;-10.782;2022-08-19T12:00:06;33.53;;;15.35;;
56297;SDS011;42208;6.376;-10.782;2022-08-19T12:02:36;47.05;;;14.63;;
56297;SDS011;42208;6.376;-10.782;2022-08-19T12:05:05;27.17;;;13.23;;
56297;SDS011;42208;6.376;-10.782;2022-08-19T12:07:39;31.52;;;13.70;;
56297;SDS011;42208;6.376;-10.782;2022-08-19T12:10:08;44.95;;;24.80;;
56297;SDS011;42208;6.376;-10.782;2022-08-19T12:12:37;24.75;;;11.68;;
56297;SDS011;42208;6.376;-10.782;2022-08-19T12:15:06;26.05;;;12.63;;
56297;SDS011;42208;6.376;-10.782;2022-08-19T12:17:36;27.17;;;12.65;;
56297;SDS011;42208;6.376;-10.782;2022-08-19T12:20:05;26.98;;;11.77;;
56297;SDS011;42208;6.376;-10.782;2022-08-19T12:22:36;25.02;;;11.52;;
56297;SDS011;42208;6.376;-10.782;2022-08-19T12:25:10;25.05;;;12.50;;
56297;SDS011;42208;6.376;-10.782;2022-08-19T12:27:40;22.23;;;10.05;;
56297;SDS011;42208;6.376;-10.782;2022-08-19T12:30:18;22.63;;;11.45;;
56297;SDS011;42208;6.376;-10.782;2022-08-19T12:32:48;24.33;;;11.52;;
56297;SDS011;42208;6.376;-10.782;2022-08-19T12:35:17;23.35;;;11.77;;
56297;SDS011;42208;6.376;-10.782;2022-08-19T12:37:48;17.08;;;9.88;;
56297;SDS011;42208;6.376;-10.782;2022-08-19T12:40:23;27.65;;;9.30;;
56297;SDS011;42208;6.376;-10.782;2022-08-19T12:42:53;23.23;;;10.75;;
56297;SDS011;42208;6.376;-10.782;2022-08-19T12:45:22;22.52;;;9.93;;
56297;SDS011;42208;6.376;-10.782;2022-08-19T12:47:50;17.95;;;9.60;;
56297;SDS011;42208;6.376;-10.782;2022-08-19T12:50:21;23.45;;;10.27;;
56297;SDS011;42208;6.376;-10.782;2022-08-19T12:52:50;21.00;;;9.55;;
56297;SDS011;42208;6.376;-10.782;2022-08-19T12:55:18;18.48;;;9.20;;
56297;SDS011;42208;6.376;-10.782;2022-08-19T12:57:47;25.30;;;10.73;;
56297;SDS011;42208;6.376;-10.782;2022-08-19T13:00:16;23.08;;;9.93;;
56297;SDS011;42208;6.376;-10.782;2022-08-19T13:02:48;23.10;;;10.23;;
56297;SDS011;42208;6.376;-10.782;2022-08-19T13:05:25;26.48;;;10.40;;
56297;SDS011;42208;6.376;-10.782;2022-08-19T13:07:57;22.30;;;10.07;;
56297;SDS011;42208;6.376;-10.782;2022-08-19T13:10:28;23.08;;;11.27;;
56297;SDS011;42208;6.376;-10.782;2022-08-19T13:12:58;22.08;;;10.77;;
56297;SDS011;42208;6.376;-10.782;2022-08-19T13:15:27;23.00;;;9.60;;
56297;SDS011;42208;6.376;-10.782;2022-08-19T13:17:56;24.92;;;10.52;;
56297;SDS011;42208;6.376;-10.782;2022-08-19T13:20:25;28.50;;;11.40;;
56297;SDS011;42208;6.376;-10.782;2022-08-19T13:22:54;21.77;;;9.77;;
56297;SDS011;42208;6.376;-10.782;2022-08-19T13:25:23;21.52;;;10.23;;
56297;SDS011;42208;6.376;-10.782;2022-08-19T13:27:52;23.10;;;10.05;;
56297;SDS011;42208;6.376;-10.782;2022-08-19T13:30:21;23.40;;;11.23;;
56297;SDS011;42208;6.376;-10.782;2022-08-19T13:32:49;23.45;;;11.43;;
56297;SDS011;42208;6.376;-10.782;2022-08-19T13:35:18;21.33;;;10.40;;
56297;SDS011;42208;6.376;-10.782;2022-08-19T13:37:46;21.48;;;9.77;;
56297;SDS011;42208;6.376;-10.782;2022-08-19T13:40:16;23.65;;;10.10;;
56297;SDS011;42208;6.376;-10.782;2022-08-19T13:42:51;20.33;;;9.68;;
56297;SDS011;42208;6.376;-10.782;2022-08-19T13:45:22;28.08;;;12.00;;
56297;SDS011;42208;6.376;-10.782;2022-08-19T13:47:52;26.75;;;11.32;;
56297;SDS011;42208;6.376;-10.782;2022-08-19T13:50:27;28.70;;;11.20;;
56297;SDS011;42208;6.376;-10.782;2022-08-19T13:52:57;25.23;;;12.07;;
56297;SDS011;42208;6.376;-10.782;2022-08-19T13:55:26;19.80;;;9.40;;
56297;SDS011;42208;6.376;-10.782;2022-08-19T13:57:55;20.90;;;10.27;;
56297;SDS011;42208;6.376;-10.782;2022-08-19T14:00:27;20.67;;;9.00;;
56297;SDS011;42208;6.376;-10.782;2022-08-19T14:02:57;17.55;;;9.68;;
56297;SDS011;42208;6.376;-10.782;2022-08-19T14:05:27;15.95;;;8.80;;
56297;SDS011;42208;6.376;-10.782;2022-08-19T14:07:57;17.30;;;10.10;;
56297;SDS011;42208;6.376;-10.782;2022-08-19T14:10:27;24.77;;;14.23;;
56297;SDS011;42208;6.376;-10.782;2022-08-19T14:12:56;31.23;;;14.48;;
56297;SDS011;42208;6.376;-10.782;2022-08-19T14:15:27;22.55;;;12.68;;
56297;SDS011;42208;6.376;-10.782;2022-08-19T14:17:57;23.48;;;11.18;;
56297;SDS011;42208;6.376;-10.782;2022-08-19T14:20:25;36.05;;;22.58;;
56297;SDS011;42208;6.376;-10.782;2022-08-19T14:22:54;22.13;;;10.13;;
56297;SDS011;42208;6.376;-10.782;2022-08-19T14:25:24;30.35;;;14.77;;
56297;SDS011;42208;6.376;-10.782;2022-08-19T14:27:56;18.30;;;11.73;;
56297;SDS011;42208;6.376;-10.782;2022-08-19T14:30:26;26.73;;;10.38;;
56297;SDS011;42208;6.376;-10.782;2022-08-19T14:32:58;23.50;;;10.00;;
56297;SDS011;42208;6.376;-10.782;2022-08-19T14:35:28;19.05;;;10.43;;
56297;SDS011;42208;6.376;-10.782;2022-08-19T14:37:58;20.73;;;11.75;;
56297;SDS011;42208;6.376;-10.782;2022-08-19T14:40:28;21.20;;;11.15;;
56297;SDS011;42208;6.376;-10.782;2022-08-19T14:43:00;22.98;;;10.15;;
56297;SDS011;42208;6.376;-10.782;2022-08-19T14:45:31;27.48;;;18.20;;
56297;SDS011;42208;6.376;-10.782;2022-08-19T14:48:03;30.50;;;16.88;;
56297;SDS011;42208;6.376;-10.782;2022-08-19T14:50:33;23.40;;;10.60;;